Charlevoix, MI

10:12 PM EST on December 27, 2014 (GMT -0500)
1.5 W Ironton | Change Station
CLOSE
Current Station
Personal Weather Station
Location: Charlevoix, MI
Elevation: 750 ft
Nearby Weather Stations
Active Advisory: Special Statement

Elev 750 ft 45.26 °N, 85.22 °W | Updated 2 seconds ago

Overcast
Overcast
31.2 °F
Feels Like 31 °F
N
0.0
Wind Variable Wind from West
Gusts 9.0 mph

Today
High -- | Low -- °F
--% Chance of Precip.
Yesterday
High -- | Low -- °F
Precip. -- in
8:19 AM 5:04 PM
Waxing Crescent, 43% visible
Pressure 29.97 in
Visibility 10.0 miles
Clouds Scattered Clouds 2700 ft
Overcast 3800 ft
Windchill 31 °F
Dew Point 28 °F
Humidity 86%
Rainfall 0.32 in
Snow Depth Not available.
UV 0 out of 12
Pollen .10 out of 12
Air Quality Not available.
Flu Activity Not available.
METAR KCVX 280255Z AUTO 32010G14KT 10SM SCT027 OVC038 00/M03 A2997 RMK AO2 T00001028

More Conditions Fewer Conditions

Pressure 29.97 in
Visibility 10.0 miles
Clouds Scattered Clouds 2700 ft
Overcast 3800 ft
Windchill 31 °F
Dew Point 28 °F
Humidity 86%
Rainfall 0.32 in
Snow Depth Not available.
UV 0 out of 12
Pollen .10 out of 12
Air Quality Not available.
Flu Activity Not available.
METAR KCVX 280255Z AUTO 32010G14KT 10SM SCT027 OVC038 00/M03 A2997 RMK AO2 T00001028

More Conditions Fewer Conditions

Nowcast | as of 10:00 PM EST on December 27, 2014

At 11 PM...mostly cloudy. Scattered flurries. Temperature 30. Northwest winds 15 mph. At 1 am...mostly cloudy. Scattered flurries. Temperature 30. West winds 14 mph. At 3 am...mostly cloudy. Scattered flurries. Temperature 29. West winds 14 mph. At 5 am...mostly cloudy. Scattered flurries. Temperature 28. West winds 14 mph.

×

10-Day Weather Forecast

Almanac

Astronomy

Dec. 27, 2014 Rise Set
Actual Time
Civil Twilight
Nautical Twilight
Astronomical Twilight
Moon
Length of Visible Light
Length of Day
Tomorrow will be .
, % of the Moon is Illuminated

Today's Extremes

State Highs State Lows

Community

WunderPhotos

Upload Photos

1,781,171 photos uploaded!

WunderBlogs® & News

Nearby

Air Quality

  Air Quality AQ Index Pollutant
Not available.

Snow Depth

Station Depth Elevation

Earthquake Activity

City Distance Mag. Time & Date
Minimum magnitude displayed is 2.5.

Coastal Water Temperatures

Place Temperature

Nearby Weather Stations